Washington, Iowa
Current Conditions -  °F | °C
As of 1:15 AM on Saturday 20 Dec 2014 (Local Time) from KAWG Reporting Station
Overcast Overcast  
Wind Chill: 24°   Ceiling: 5000
Heat Index: 30°   Visibility: 7mi
Dew Point: 30°   Wind: 6mph
Humidity: 100%   Direction: 140°SE
Pressure: 30.23"   Gusts: NA
Location:  41.3°N, 91.69°W
Report Text: KAWG 200715Z AUTO 14005KT 7SM SCT028 OVC050 M01/M01 A3023 RMK AO2
Loading
Personal Weather Stations






























Interactive Weather Map New forecast layout! Learn more

10-Day Weather Forecast

Advertisements
Track Severe Weather on mobile